Time;durP1;ratioP1;P1;durP2;ratioP2;P2;SDS_P1;SDS_P2;PMS_P1;PMS_P2;Temp;Humidity;BMP_temperature;BMP_pressure;BME280_temperature;BME280_humidity;BME280_pressure;Samples;Min_cycle;Max_cycle;Signal;HPM_P1;HPM_P2
2022/08/19 00:01:58;;;;;;;;;;;24.40;59.40;;;;;;6323778;27;19923;-39
2022/08/19 00:05:00;;;;;;;;;;;24.30;59.30;;;;;;6310298;27;20029;-39
2022/08/19 00:08:02;;;;;;;;;;;24.80;59.60;;;;;;6329905;27;19931;-39
2022/08/19 00:11:04;;;;;;;;;;;24.70;59.50;;;;;;6330172;27;20852;-39
2022/08/19 00:14:06;;;;;;;;;;;24.80;59.50;;;;;;6329373;27;21171;-39
2022/08/19 00:17:09;;;;;;;;;;;24.80;59.50;;;;;;6325332;27;20037;-39
2022/08/19 00:20:12;;;;;;;;;;;24.50;59.30;;;;;;6305238;27;19919;-40
2022/08/19 00:23:16;;;;;;;;;;;24.50;59.30;;;;;;6307735;27;20059;-38
2022/08/19 00:26:18;;;;;;;;;;;24.70;59.40;;;;;;6325363;27;19999;-42
2022/08/19 00:29:20;;;;;;;;;;;24.50;59.30;;;;;;6325045;27;19927;-39
2022/08/19 00:32:21;;;;;;;;;;;24.50;59.40;;;;;;6305608;27;19926;-39
2022/08/19 00:35:23;;;;;;;;;;;24.40;59.20;;;;;;6325460;27;20027;-38
2022/08/19 00:38:24;;;;;;;;;;;24.50;59.30;;;;;;6327011;27;19928;-39
2022/08/19 00:41:39;;;;;;;;;;;25.00;59.50;;;;;;6328406;27;19920;-38
2022/08/19 00:44:41;;;;;;;;;;;24.50;59.30;;;;;;6328053;27;19927;-38
2022/08/19 00:47:43;;;;;;;;;;;24.50;59.30;;;;;;6326811;27;20189;-39
2022/08/19 00:50:45;;;;;;;;;;;24.50;59.30;;;;;;6326530;27;19927;-38
2022/08/19 00:53:55;;;;;;;;;;;24.40;59.20;;;;;;6309301;27;19923;-39
2022/08/19 00:56:57;;;;;;;;;;;24.70;59.40;;;;;;6326789;27;19927;-38
2022/08/19 00:59:59;;;;;;;;;;;24.60;59.30;;;;;;6325336;27;20037;-38
2022/08/19 01:03:06;;;;;;;;;;;24.50;59.30;;;;;;6326797;27;20067;-38
2022/08/19 01:06:07;;;;;;;;;;;24.70;59.30;;;;;;6312625;27;19971;-38
2022/08/19 01:09:09;;;;;;;;;;;24.50;59.20;;;;;;6326866;27;19930;-39
2022/08/19 01:12:11;;;;;;;;;;;24.70;59.40;;;;;;6330537;27;19962;-38
2022/08/19 01:15:14;;;;;;;;;;;24.50;59.80;;;;;;6328213;27;20038;-38
2022/08/19 01:18:17;;;;;;;;;;;24.80;59.40;;;;;;6308194;27;20617;-38
2022/08/19 01:21:22;;;;;;;;;;;24.70;59.30;;;;;;6325056;27;20529;-38
2022/08/19 01:24:24;;;;;;;;;;;24.30;59.10;;;;;;6308320;27;19979;-38
2022/08/19 01:27:25;;;;;;;;;;;24.70;59.30;;;;;;6325104;27;19927;-39
2022/08/19 01:30:28;;;;;;;;;;;24.80;59.40;;;;;;6328495;27;19963;-39
2022/08/19 01:33:30;;;;;;;;;;;24.40;59.20;;;;;;6328495;27;20474;-39
2022/08/19 01:36:34;;;;;;;;;;;24.60;59.20;;;;;;6327210;27;19927;-38
2022/08/19 01:39:35;;;;;;;;;;;24.80;59.40;;;;;;6309424;27;19930;-39
2022/08/19 01:42:37;;;;;;;;;;;24.90;59.50;;;;;;6325665;27;19927;-39
2022/08/19 01:45:39;;;;;;;;;;;24.60;59.30;;;;;;6324905;27;19927;-38
2022/08/19 01:48:45;;;;;;;;;;;24.70;59.30;;;;;;6325737;27;19923;-41
2022/08/19 01:51:46;;;;;;;;;;;24.50;59.20;;;;;;6326443;27;19918;-38
2022/08/19 01:54:49;;;;;;;;;;;24.60;59.30;;;;;;6309672;27;20758;-39
2022/08/19 01:57:51;;;;;;;;;;;24.90;59.40;;;;;;6327421;27;20025;-39
2022/08/19 02:00:53;;;;;;;;;;;24.50;59.20;;;;;;6305124;27;19958;-39
2022/08/19 02:03:54;;;;;;;;;;;24.60;59.20;;;;;;6323995;27;20629;-40
2022/08/19 02:06:59;;;;;;;;;;;24.60;59.30;;;;;;6317511;27;20173;-40
2022/08/19 02:10:03;;;;;;;;;;;24.60;59.30;;;;;;6312515;27;19927;-39
2022/08/19 02:13:11;;;;;;;;;;;24.70;59.30;;;;;;6300988;27;19955;-39
2022/08/19 02:16:12;;;;;;;;;;;24.50;59.20;;;;;;6324487;27;19933;-39
2022/08/19 02:19:16;;;;;;;;;;;24.60;59.30;;;;;;6326108;27;19920;-39
2022/08/19 02:22:18;;;;;;;;;;;24.50;59.20;;;;;;6327469;27;19977;-40
2022/08/19 02:25:20;;;;;;;;;;;24.60;59.30;;;;;;6324406;27;20049;-39
2022/08/19 02:28:21;;;;;;;;;;;24.60;59.30;;;;;;6326441;27;19970;-40
2022/08/19 02:31:24;;;;;;;;;;;24.70;59.30;;;;;;6325529;27;19928;-38
2022/08/19 02:34:26;;;;;;;;;;;24.60;59.30;;;;;;6309819;27;19934;-38
2022/08/19 02:40:50;;;;;;;;;;;24.50;59.20;;;;;;6324664;27;19923;-38
2022/08/19 02:43:51;;;;;;;;;;;24.40;59.20;;;;;;6308626;27;19978;-38
2022/08/19 02:47:14;;;;;;;;;;;24.50;59.30;;;;;;6310938;27;19919;-38
2022/08/19 02:50:15;;;;;;;;;;;24.70;59.40;;;;;;6329562;27;20004;-39
2022/08/19 02:53:16;;;;;;;;;;;24.50;59.30;;;;;;6331389;27;19931;-38
2022/08/19 02:56:19;;;;;;;;;;;24.50;59.30;;;;;;6330717;27;19931;-39
2022/08/19 02:59:21;;;;;;;;;;;24.60;59.30;;;;;;6329510;27;20021;-38
2022/08/19 03:02:24;;;;;;;;;;;24.60;59.40;;;;;;6331404;27;19992;-38
2022/08/19 03:05:25;;;;;;;;;;;24.50;59.30;;;;;;6332912;27;19991;-39
2022/08/19 03:08:48;;;;;;;;;;;24.20;59.10;;;;;;6315137;27;19919;-39
2022/08/19 03:11:50;;;;;;;;;;;24.40;59.30;;;;;;6328843;27;20770;-39
2022/08/19 03:14:54;;;;;;;;;;;24.60;59.30;;;;;;6330617;27;19919;-39
2022/08/19 03:17:55;;;;;;;;;;;24.40;59.20;;;;;;6328795;27;19919;-40
2022/08/19 03:20:58;;;;;;;;;;;24.30;59.20;;;;;;6329504;27;19958;-40
2022/08/19 03:24:01;;;;;;;;;;;24.50;59.30;;;;;;6329242;27;19919;-39
2022/08/19 03:27:06;;;;;;;;;;;24.60;59.40;;;;;;6329025;27;19928;-39
2022/08/19 03:30:08;;;;;;;;;;;24.60;59.50;;;;;;6331298;27;20030;-39
2022/08/19 03:33:12;;;;;;;;;;;24.60;59.30;;;;;;6330452;27;19927;-39
2022/08/19 03:36:21;;;;;;;;;;;24.50;59.20;;;;;;6328068;27;19919;-39
2022/08/19 03:39:23;;;;;;;;;;;24.70;59.30;;;;;;6331655;27;19930;-40
2022/08/19 03:42:26;;;;;;;;;;;24.60;59.20;;;;;;6313124;27;19995;-39
2022/08/19 03:45:34;;;;;;;;;;;24.70;59.20;;;;;;6333112;27;19927;-39
2022/08/19 03:48:36;;;;;;;;;;;24.90;59.30;;;;;;6331085;27;20848;-40
2022/08/19 03:51:38;;;;;;;;;;;24.70;59.30;;;;;;6330791;27;19969;-38
2022/08/19 03:54:39;;;;;;;;;;;24.50;59.30;;;;;;6331080;27;20722;-39
2022/08/19 03:57:42;;;;;;;;;;;24.90;59.40;;;;;;6327781;27;20827;-39
2022/08/19 04:00:43;;;;;;;;;;;24.60;59.30;;;;;;6327872;27;20031;-39
2022/08/19 04:03:46;;;;;;;;;;;24.40;59.20;;;;;;6329578;27;20861;-39
2022/08/19 04:06:47;;;;;;;;;;;24.60;59.30;;;;;;6329698;27;20909;-39
2022/08/19 04:09:50;;;;;;;;;;;24.60;59.40;;;;;;6328247;27;20154;-39
2022/08/19 04:12:52;;;;;;;;;;;24.60;59.40;;;;;;6331038;27;20042;-38
2022/08/19 04:15:53;;;;;;;;;;;24.60;59.40;;;;;;6330425;27;19923;-39
2022/08/19 04:18:55;;;;;;;;;;;24.50;59.40;;;;;;6324098;27;19956;-38
2022/08/19 04:21:58;;;;;;;;;;;24.30;59.30;;;;;;6327931;27;20069;-38
2022/08/19 04:24:59;;;;;;;;;;;24.60;59.50;;;;;;6327173;27;19926;-38
2022/08/19 04:28:01;;;;;;;;;;;24.60;59.50;;;;;;6326868;27;19946;-39
2022/08/19 04:31:02;;;;;;;;;;;24.60;59.50;;;;;;6305974;27;20038;-38
2022/08/19 04:34:05;;;;;;;;;;;24.50;59.40;;;;;;6324906;27;19934;-38
2022/08/19 04:37:12;;;;;;;;;;;24.50;59.50;;;;;;6309972;27;20816;-41
2022/08/19 04:43:27;;;;;;;;;;;24.60;59.60;;;;;;6326482;27;19974;-39
2022/08/19 04:46:30;;;;;;;;;;;24.50;59.50;;;;;;6323385;27;19920;-38
2022/08/19 04:49:51;;;;;;;;;;;24.40;59.50;;;;;;6311569;27;20767;-41
2022/08/19 04:52:52;;;;;;;;;;;24.70;59.70;;;;;;6323743;27;19926;-38
2022/08/19 04:55:54;;;;;;;;;;;24.40;59.50;;;;;;6323183;27;20810;-41
2022/08/19 04:58:57;;;;;;;;;;;24.80;59.70;;;;;;6323187;27;19931;-38
2022/08/19 05:01:58;;;;;;;;;;;24.60;59.70;;;;;;6323857;27;19927;-40
2022/08/19 05:05:00;;;;;;;;;;;24.60;59.60;;;;;;6323883;27;19926;-39
2022/08/19 05:08:01;;;;;;;;;;;24.50;59.60;;;;;;6328092;27;19920;-38
2022/08/19 05:11:07;;;;;;;;;;;24.40;59.50;;;;;;6325407;27;19967;-39
2022/08/19 05:14:12;;;;;;;;;;;24.40;59.50;;;;;;6306997;27;19930;-38
2022/08/19 05:17:13;;;;;;;;;;;24.60;59.70;;;;;;6306393;27;19989;-38
2022/08/19 05:23:53;;;;;;;;;;;24.50;59.60;;;;;;6319287;27;20363;-38
2022/08/19 05:26:56;;;;;;;;;;;24.30;59.50;;;;;;6320224;27;20885;-38
2022/08/19 05:29:59;;;;;;;;;;;24.50;59.70;;;;;;6303493;27;19973;-38
2022/08/19 05:33:00;;;;;;;;;;;24.70;59.80;;;;;;6319723;27;19971;-38
2022/08/19 05:36:02;;;;;;;;;;;24.60;59.70;;;;;;6320368;27;19973;-39
2022/08/19 05:39:03;;;;;;;;;;;24.50;59.70;;;;;;6298081;27;19935;-39
2022/08/19 05:42:06;;;;;;;;;;;24.60;59.80;;;;;;6320642;27;19933;-39
2022/08/19 05:45:09;;;;;;;;;;;24.60;59.80;;;;;;6301104;27;20031;-38
2022/08/19 05:48:11;;;;;;;;;;;24.60;59.90;;;;;;6313443;27;19933;-38
2022/08/19 05:51:12;;;;;;;;;;;24.40;59.70;;;;;;6315548;27;19976;-38
2022/08/19 05:54:22;;;;;;;;;;;24.60;59.90;;;;;;6298194;27;19919;-38
2022/08/19 05:57:24;;;;;;;;;;;24.80;60.20;;;;;;6300420;27;20005;-39
2022/08/19 06:00:26;;;;;;;;;;;24.60;59.80;;;;;;6319549;27;20001;-38
2022/08/19 06:03:28;;;;;;;;;;;24.60;59.90;;;;;;6309221;27;20830;-39
2022/08/19 06:06:29;;;;;;;;;;;24.40;59.80;;;;;;6310082;27;19994;-38
2022/08/19 06:09:30;;;;;;;;;;;24.40;59.80;;;;;;6309299;27;19979;-38
2022/08/19 06:12:33;;;;;;;;;;;24.50;60.00;;;;;;6314846;27;19926;-38
2022/08/19 06:15:35;;;;;;;;;;;24.70;60.00;;;;;;6308284;27;20808;-39
2022/08/19 06:18:37;;;;;;;;;;;24.50;59.90;;;;;;6308586;27;19973;-38
2022/08/19 06:21:40;;;;;;;;;;;24.60;60.00;;;;;;6309717;27;20774;-38
2022/08/19 06:24:41;;;;;;;;;;;24.80;60.00;;;;;;6281947;27;19947;-38
2022/08/19 06:27:43;;;;;;;;;;;24.40;60.50;;;;;;6302275;27;19919;-38
2022/08/19 06:31:07;;;;;;;;;;;24.50;60.00;;;;;;6290677;27;19934;-39
2022/08/19 06:34:08;;;;;;;;;;;24.60;59.90;;;;;;6309384;27;19933;-39
2022/08/19 06:37:11;;;;;;;;;;;24.50;60.00;;;;;;6289699;27;20840;-39
2022/08/19 06:40:12;;;;;;;;;;;24.60;60.00;;;;;;6285324;27;20034;-38
2022/08/19 06:43:15;;;;;;;;;;;24.40;59.90;;;;;;6306361;27;19919;-41
2022/08/19 06:46:20;;;;;;;;;;;24.40;60.00;;;;;;6298607;27;19927;-38
2022/08/19 06:49:22;;;;;;;;;;;24.60;60.10;;;;;;6291269;27;19931;-38
2022/08/19 06:52:23;;;;;;;;;;;24.60;60.10;;;;;;6277194;27;20851;-39
2022/08/19 06:55:29;;;;;;;;;;;24.30;59.90;;;;;;6289259;27;20131;-38
2022/08/19 06:58:31;;;;;;;;;;;24.50;60.00;;;;;;6289704;27;21111;-38
2022/08/19 07:01:37;;;;;;;;;;;24.70;60.00;;;;;;6268810;27;20989;-38
2022/08/19 07:04:38;;;;;;;;;;;24.60;60.00;;;;;;6273413;27;20049;-38
2022/08/19 07:07:43;;;;;;;;;;;24.40;59.90;;;;;;6270283;27;19926;-38
2022/08/19 07:10:48;;;;;;;;;;;24.60;60.00;;;;;;6274792;27;19923;-38
2022/08/19 07:13:50;;;;;;;;;;;24.70;60.00;;;;;;6282106;27;20264;-39
2022/08/19 07:16:56;;;;;;;;;;;24.60;60.00;;;;;;6260870;27;20047;-39
2022/08/19 07:19:58;;;;;;;;;;;24.50;60.00;;;;;;6284881;27;19934;-38
2022/08/19 07:23:10;;;;;;;;;;;24.70;60.10;;;;;;6274008;27;19973;-38
2022/08/19 07:26:19;;;;;;;;;;;24.60;60.00;;;;;;6269116;27;19927;-38
2022/08/19 07:29:29;;;;;;;;;;;24.50;59.90;;;;;;6262786;27;20866;-39
2022/08/19 07:32:32;;;;;;;;;;;24.70;60.00;;;;;;6259655;27;19934;-39
2022/08/19 07:35:33;;;;;;;;;;;24.90;60.10;;;;;;6276188;27;20066;-39
2022/08/19 07:38:35;;;;;;;;;;;24.70;60.00;;;;;;6265054;27;20041;-39
2022/08/19 07:41:39;;;;;;;;;;;24.60;59.90;;;;;;6269847;27;19927;-38
2022/08/19 07:44:40;;;;;;;;;;;24.70;60.00;;;;;;6276790;27;19939;-39
2022/08/19 07:47:47;;;;;;;;;;;24.50;59.80;;;;;;6239349;27;19930;-39
2022/08/19 07:50:57;;;;;;;;;;;24.70;60.00;;;;;;6273306;27;19971;-38
2022/08/19 07:53:58;;;;;;;;;;;24.80;60.00;;;;;;6286771;27;19927;-39
2022/08/19 07:56:59;;;;;;;;;;;24.80;60.00;;;;;;6282632;27;19927;-39
2022/08/19 08:00:01;;;;;;;;;;;24.70;59.90;;;;;;6257273;27;19927;-38
2022/08/19 08:03:03;;;;;;;;;;;24.70;59.90;;;;;;6275667;27;19928;-39
2022/08/19 08:09:21;;;;;;;;;;;24.70;59.80;;;;;;6268596;27;19933;-39
2022/08/19 08:12:30;;;;;;;;;;;24.80;60.00;;;;;;6268722;27;19934;-41
2022/08/19 08:15:37;;;;;;;;;;;24.90;60.00;;;;;;6260610;27;20643;-39
2022/08/19 08:18:44;;;;;;;;;;;24.80;59.90;;;;;;6267311;27;19935;-39
2022/08/19 08:21:58;;;;;;;;;;;25.00;60.00;;;;;;6268268;27;19950;-39
2022/08/19 08:25:01;;;;;;;;;;;24.70;59.80;;;;;;6286916;27;19970;-39
2022/08/19 08:28:08;;;;;;;;;;;24.80;59.90;;;;;;6264564;27;19927;-41
2022/08/19 08:31:12;;;;;;;;;;;24.80;59.90;;;;;;6273275;27;19923;-39
2022/08/19 08:34:15;;;;;;;;;;;24.80;59.90;;;;;;6279584;27;19931;-40
2022/08/19 08:37:16;;;;;;;;;;;24.90;60.00;;;;;;6275438;27;21330;-39
2022/08/19 08:40:20;;;;;;;;;;;24.90;59.90;;;;;;6278636;27;19966;-39
2022/08/19 08:43:26;;;;;;;;;;;24.90;59.90;;;;;;6259924;27;19927;-39
2022/08/19 08:46:37;;;;;;;;;;;24.80;59.80;;;;;;6255050;27;19927;-38
2022/08/19 08:49:41;;;;;;;;;;;25.00;59.90;;;;;;6248715;27;19934;-39
2022/08/19 08:52:45;;;;;;;;;;;25.10;60.00;;;;;;6275141;27;21428;-39
2022/08/19 08:55:47;;;;;;;;;;;24.90;59.90;;;;;;6258035;27;19934;-40
2022/08/19 08:58:54;;;;;;;;;;;24.90;59.90;;;;;;6288959;27;20953;-39
2022/08/19 09:01:55;;;;;;;;;;;24.90;59.90;;;;;;6248164;27;19927;-39
2022/08/19 09:04:58;;;;;;;;;;;24.80;59.80;;;;;;6264552;27;19927;-39
2022/08/19 09:08:02;;;;;;;;;;;24.90;59.90;;;;;;6282354;27;19926;-39
2022/08/19 09:11:07;;;;;;;;;;;24.90;59.80;;;;;;6255816;27;20051;-39
2022/08/19 09:14:16;;;;;;;;;;;24.90;59.80;;;;;;6276825;27;19930;-39
2022/08/19 09:17:38;;;;;;;;;;;25.00;59.90;;;;;;6274225;27;20559;-39
2022/08/19 09:20:40;;;;;;;;;;;25.10;60.60;;;;;;6286421;27;19931;-41
2022/08/19 09:23:44;;;;;;;;;;;24.80;59.80;;;;;;6285975;27;20880;-39
2022/08/19 09:26:46;;;;;;;;;;;25.00;59.90;;;;;;6287006;27;19993;-38
2022/08/19 09:29:54;;;;;;;;;;;25.00;59.90;;;;;;6290381;27;21686;-39
2022/08/19 09:32:55;;;;;;;;;;;25.00;59.90;;;;;;6282727;27;19933;-39
2022/08/19 09:36:04;;;;;;;;;;;24.80;59.80;;;;;;6289475;27;19934;-39
2022/08/19 09:39:09;;;;;;;;;;;25.00;59.80;;;;;;6291469;27;19930;-40
2022/08/19 09:42:17;;;;;;;;;;;25.00;59.90;;;;;;6289191;27;19933;-39
2022/08/19 09:45:32;;;;;;;;;;;24.80;59.80;;;;;;6269266;27;20755;-40
2022/08/19 09:48:33;;;;;;;;;;;24.90;59.80;;;;;;6271148;27;20037;-39
2022/08/19 09:51:36;;;;;;;;;;;24.90;59.80;;;;;;6257643;27;20024;-39
2022/08/19 09:54:38;;;;;;;;;;;24.90;59.80;;;;;;6279175;27;19927;-39
2022/08/19 09:57:45;;;;;;;;;;;25.00;59.90;;;;;;6287967;27;19927;-39
2022/08/19 10:00:46;;;;;;;;;;;25.10;60.00;;;;;;6290205;27;20006;-39
2022/08/19 10:03:54;;;;;;;;;;;25.00;59.90;;;;;;6287452;27;19965;-39
2022/08/19 10:06:56;;;;;;;;;;;25.10;60.00;;;;;;6269038;27;20070;-39
2022/08/19 10:09:58;;;;;;;;;;;25.10;60.10;;;;;;6273813;27;19923;-39
2022/08/19 10:12:59;;;;;;;;;;;25.00;60.00;;;;;;6277519;27;20076;-39
2022/08/19 10:16:03;;;;;;;;;;;25.10;60.00;;;;;;6289885;27;20945;-39
2022/08/19 10:19:05;;;;;;;;;;;25.00;59.90;;;;;;6258139;27;20150;-39
2022/08/19 10:22:07;;;;;;;;;;;25.10;60.00;;;;;;6292649;27;20060;-39
2022/08/19 10:25:17;;;;;;;;;;;24.90;59.90;;;;;;6288537;27;19922;-39
2022/08/19 10:28:18;;;;;;;;;;;25.10;60.00;;;;;;6275927;27;20007;-39
2022/08/19 10:31:22;;;;;;;;;;;25.10;60.00;;;;;;6278028;27;19931;-40
2022/08/19 10:34:44;;;;;;;;;;;25.00;60.00;;;;;;6273635;27;19927;-39
2022/08/19 10:37:50;;;;;;;;;;;25.10;60.00;;;;;;6297339;27;19999;-39
2022/08/19 10:41:10;;;;;;;;;;;25.00;60.00;;;;;;6301721;27;20059;-39
2022/08/19 10:44:13;;;;;;;;;;;24.90;60.00;;;;;;6289848;27;19919;-39
2022/08/19 10:47:15;;;;;;;;;;;25.10;60.10;;;;;;6279547;27;20047;-39
2022/08/19 10:53:43;;;;;;;;;;;25.10;60.20;;;;;;6301099;27;19919;-39
2022/08/19 10:56:51;;;;;;;;;;;25.10;60.10;;;;;;6299077;27;20031;-39
2022/08/19 10:59:53;;;;;;;;;;;25.10;60.20;;;;;;6299655;27;19930;-39
2022/08/19 11:02:55;;;;;;;;;;;24.90;60.10;;;;;;6303870;27;19959;-39
2022/08/19 11:05:57;;;;;;;;;;;25.20;60.30;;;;;;6305545;27;19927;-39
2022/08/19 11:09:03;;;;;;;;;;;25.10;60.20;;;;;;6285998;27;19926;-39
2022/08/19 11:12:04;;;;;;;;;;;25.10;60.20;;;;;;6309999;27;20854;-40
2022/08/19 11:15:08;;;;;;;;;;;25.10;60.20;;;;;;6310988;27;20431;-39
2022/08/19 11:18:09;;;;;;;;;;;25.10;60.20;;;;;;6313836;27;19934;-39
2022/08/19 11:21:16;;;;;;;;;;;25.00;60.20;;;;;;6307606;27;20039;-40
2022/08/19 11:24:20;;;;;;;;;;;25.10;60.30;;;;;;6308513;27;19927;-39
2022/08/19 11:27:21;;;;;;;;;;;25.20;60.50;;;;;;6307254;27;19931;-38
2022/08/19 11:30:23;;;;;;;;;;;24.90;60.20;;;;;;6311776;27;19926;-39
2022/08/19 11:33:26;;;;;;;;;;;25.20;60.40;;;;;;6281025;27;19934;-39
2022/08/19 11:36:27;;;;;;;;;;;25.10;60.30;;;;;;6298253;27;19927;-39
2022/08/19 11:39:30;;;;;;;;;;;25.10;60.30;;;;;;6269869;27;19923;-39
2022/08/19 11:45:48;;;;;;;;;;;24.90;60.20;;;;;;6301330;27;20001;-39
2022/08/19 11:48:50;;;;;;;;;;;25.20;60.40;;;;;;6293506;27;20051;-39
2022/08/19 11:51:53;;;;;;;;;;;25.00;60.30;;;;;;6293870;27;21054;-41
2022/08/19 11:54:55;;;;;;;;;;;25.10;60.40;;;;;;6276723;27;20000;-39
2022/08/19 11:57:57;;;;;;;;;;;25.00;60.30;;;;;;6292719;27;20872;-40
2022/08/19 12:00:58;;;;;;;;;;;25.10;60.40;;;;;;6274503;27;20061;-39
2022/08/19 12:04:00;;;;;;;;;;;25.20;60.50;;;;;;6279651;27;21029;-40
2022/08/19 12:07:03;;;;;;;;;;;25.30;60.60;;;;;;6282549;27;20012;-39
2022/08/19 12:10:05;;;;;;;;;;;25.10;60.50;;;;;;6285844;27;20156;-39
2022/08/19 12:13:07;;;;;;;;;;;25.10;60.40;;;;;;6263066;27;19931;-38
2022/08/19 12:16:11;;;;;;;;;;;25.00;60.40;;;;;;6289203;27;19962;-38
2022/08/19 12:19:12;;;;;;;;;;;25.20;60.60;;;;;;6274952;27;19955;-41
2022/08/19 12:22:14;;;;;;;;;;;25.10;60.50;;;;;;6292088;27;19972;-41
2022/08/19 12:25:16;;;;;;;;;;;25.10;60.50;;;;;;6302297;27;20066;-39
2022/08/19 12:28:20;;;;;;;;;;;25.10;60.60;;;;;;6300209;27;21824;-40
2022/08/19 12:31:21;;;;;;;;;;;25.10;60.60;;;;;;6264170;27;19927;-39
2022/08/19 12:34:24;;;;;;;;;;;24.90;60.50;;;;;;6275314;27;20050;-39
2022/08/19 12:37:26;;;;;;;;;;;25.20;60.70;;;;;;6282672;27;20054;-39
2022/08/19 12:40:28;;;;;;;;;;;24.90;60.50;;;;;;6284053;27;20113;-39
2022/08/19 12:43:30;;;;;;;;;;;25.10;60.60;;;;;;6283671;27;20003;-39
2022/08/19 12:46:31;;;;;;;;;;;25.00;60.50;;;;;;6277272;27;19976;-39
2022/08/19 12:49:34;;;;;;;;;;;25.20;60.80;;;;;;6282069;27;20928;-39
2022/08/19 12:52:56;;;;;;;;;;;25.20;60.70;;;;;;6261364;27;19930;-39
2022/08/19 12:55:59;;;;;;;;;;;25.20;60.80;;;;;;6274479;27;19927;-40
2022/08/19 12:59:01;;;;;;;;;;;25.20;60.80;;;;;;6264632;27;19927;-39
2022/08/19 13:02:05;;;;;;;;;;;25.20;60.80;;;;;;6267766;27;20029;-39
2022/08/19 13:05:08;;;;;;;;;;;25.00;60.60;;;;;;6286173;27;21313;-39
2022/08/19 13:08:11;;;;;;;;;;;25.10;60.70;;;;;;6279607;27;20953;-39
2022/08/19 13:11:15;;;;;;;;;;;25.20;60.80;;;;;;6275562;27;20046;-39
2022/08/19 13:14:16;;;;;;;;;;;25.30;61.00;;;;;;6275382;27;20069;-39
2022/08/19 13:17:18;;;;;;;;;;;25.00;60.70;;;;;;6283116;27;21544;-39
2022/08/19 13:20:20;;;;;;;;;;;25.20;60.90;;;;;;6281711;27;21167;-40
2022/08/19 13:23:21;;;;;;;;;;;25.00;60.80;;;;;;6253108;27;19966;-39
2022/08/19 13:26:23;;;;;;;;;;;25.00;60.80;;;;;;6283972;27;20859;-39
2022/08/19 13:35:57;;;;;;;;;;;25.10;61.00;;;;;;6281902;27;21192;-39
2022/08/19 13:38:58;;;;;;;;;;;25.20;61.00;;;;;;6251421;27;19969;-39
2022/08/19 13:42:01;;;;;;;;;;;25.00;61.00;;;;;;6281780;27;19934;-39
2022/08/19 13:45:02;;;;;;;;;;;25.10;61.00;;;;;;6275423;27;20037;-40
2022/08/19 13:48:06;;;;;;;;;;;25.10;61.10;;;;;;6269245;27;19927;-39
2022/08/19 13:51:10;;;;;;;;;;;24.90;61.00;;;;;;6253688;27;19927;-39
2022/08/19 13:54:12;;;;;;;;;;;25.10;61.10;;;;;;6259709;27;20046;-42
2022/08/19 13:57:14;;;;;;;;;;;25.00;61.00;;;;;;6246785;27;20069;-39
2022/08/19 14:00:17;;;;;;;;;;;24.90;61.00;;;;;;6257157;27;19927;-39
2022/08/19 14:03:19;;;;;;;;;;;25.10;61.20;;;;;;6236794;27;19934;-38
2022/08/19 14:06:22;;;;;;;;;;;25.20;61.20;;;;;;6245306;27;19969;-38
2022/08/19 14:09:23;;;;;;;;;;;25.30;61.30;;;;;;6261292;27;20619;-40
2022/08/19 14:12:25;;;;;;;;;;;25.10;61.20;;;;;;6256251;27;19988;-40
2022/08/19 14:15:29;;;;;;;;;;;25.10;61.20;;;;;;6270103;27;19923;-39
2022/08/19 14:18:31;;;;;;;;;;;25.20;61.30;;;;;;6274327;27;20136;-39
2022/08/19 14:21:33;;;;;;;;;;;25.10;61.30;;;;;;6277542;27;19927;-39
2022/08/19 14:24:34;;;;;;;;;;;25.40;61.50;;;;;;6276272;27;20046;-39
2022/08/19 14:27:37;;;;;;;;;;;25.10;61.30;;;;;;6265113;27;20200;-40
2022/08/19 14:30:38;;;;;;;;;;;25.10;61.30;;;;;;6271914;27;20003;-39
2022/08/19 14:33:40;;;;;;;;;;;25.10;61.40;;;;;;6273704;27;19931;-39
2022/08/19 14:36:42;;;;;;;;;;;25.10;61.40;;;;;;6275591;27;19934;-39
2022/08/19 14:39:44;;;;;;;;;;;25.20;61.50;;;;;;6261994;27;19934;-39
2022/08/19 14:42:46;;;;;;;;;;;25.20;62.10;;;;;;6265417;27;19934;-39
2022/08/19 14:45:48;;;;;;;;;;;25.10;61.50;;;;;;6277716;27;19928;-38
2022/08/19 14:48:51;;;;;;;;;;;25.10;61.50;;;;;;6282319;27;20784;-39
2022/08/19 14:51:54;;;;;;;;;;;25.10;61.50;;;;;;6250791;27;19927;-39
2022/08/19 14:54:56;;;;;;;;;;;25.10;61.50;;;;;;6256593;27;20000;-39
2022/08/19 14:57:59;;;;;;;;;;;25.10;61.50;;;;;;6277052;27;20971;-40
2022/08/19 15:01:03;;;;;;;;;;;24.80;61.40;;;;;;6278331;27;20172;-39
2022/08/19 15:04:04;;;;;;;;;;;24.70;61.30;;;;;;6273376;27;21317;-39
2022/08/19 15:07:05;;;;;;;;;;;25.10;61.70;;;;;;6276154;27;19927;-39
2022/08/19 15:10:08;;;;;;;;;;;25.10;61.60;;;;;;6286321;27;19996;-42
2022/08/19 15:13:10;;;;;;;;;;;25.10;61.70;;;;;;6288673;27;19965;-39
2022/08/19 15:16:14;;;;;;;;;;;25.10;61.70;;;;;;6291498;27;20007;-38
2022/08/19 15:19:19;;;;;;;;;;;25.10;61.70;;;;;;6290422;27;19927;-39
2022/08/19 15:22:21;;;;;;;;;;;24.90;61.60;;;;;;6290334;27;20876;-39
2022/08/19 15:25:22;;;;;;;;;;;25.20;61.80;;;;;;6291775;27;19966;-39
2022/08/19 15:28:25;;;;;;;;;;;25.00;61.70;;;;;;6292435;27;21232;-39
2022/08/19 15:31:27;;;;;;;;;;;25.10;61.80;;;;;;6284218;27;20049;-39
2022/08/19 15:34:31;;;;;;;;;;;25.00;61.70;;;;;;6282115;27;19934;-39
2022/08/19 15:37:32;;;;;;;;;;;25.00;61.80;;;;;;6299879;27;20302;-38
2022/08/19 15:40:38;;;;;;;;;;;25.20;61.90;;;;;;6295206;27;19934;-39
2022/08/19 15:43:41;;;;;;;;;;;25.10;61.80;;;;;;6298898;27;20008;-39
2022/08/19 15:46:44;;;;;;;;;;;25.00;61.80;;;;;;6303865;27;20058;-39
2022/08/19 15:49:45;;;;;;;;;;;25.10;61.80;;;;;;6311517;27;19995;-39
2022/08/19 15:52:47;;;;;;;;;;;25.10;61.80;;;;;;6306602;27;19936;-40
2022/08/19 15:55:51;;;;;;;;;;;25.00;61.80;;;;;;6287804;27;20011;-39
2022/08/19 16:08:48;;;;;;;;;;;25.00;62.00;;;;;;6293442;27;19995;-38
2022/08/19 16:11:50;;;;;;;;;;;24.90;62.00;;;;;;6307951;27;20769;-39
2022/08/19 16:14:58;;;;;;;;;;;25.20;62.10;;;;;;6298233;27;20814;-39
2022/08/19 16:18:01;;;;;;;;;;;24.90;61.90;;;;;;6269188;27;19928;-40
2022/08/19 16:21:03;;;;;;;;;;;25.00;62.00;;;;;;6280493;27;19927;-39
2022/08/19 16:24:06;;;;;;;;;;;25.00;61.90;;;;;;6307735;27;20049;-39
2022/08/19 16:27:07;;;;;;;;;;;25.00;61.90;;;;;;6289373;27;19935;-39
2022/08/19 16:30:10;;;;;;;;;;;25.00;61.90;;;;;;6284348;27;20038;-39
2022/08/19 16:33:11;;;;;;;;;;;24.90;61.80;;;;;;6306365;27;20692;-38
2022/08/19 16:36:23;;;;;;;;;;;24.80;61.80;;;;;;6286435;27;19934;-39
2022/08/19 16:39:25;;;;;;;;;;;25.00;61.90;;;;;;6300030;27;19927;-39
2022/08/19 16:42:26;;;;;;;;;;;25.00;61.90;;;;;;6313248;27;20009;-39
2022/08/19 16:45:28;;;;;;;;;;;25.00;61.80;;;;;;6309863;27;20042;-38
2022/08/19 16:48:30;;;;;;;;;;;25.00;61.90;;;;;;6289224;27;19926;-39
2022/08/19 16:51:32;;;;;;;;;;;24.80;61.70;;;;;;6312066;27;19931;-39
2022/08/19 16:54:34;;;;;;;;;;;24.90;61.80;;;;;;6305971;27;19927;-39
2022/08/19 16:57:36;;;;;;;;;;;25.00;61.80;;;;;;6310374;27;20061;-38
2022/08/19 17:00:38;;;;;;;;;;;24.90;61.80;;;;;;6309381;27;20871;-38
2022/08/19 17:03:40;;;;;;;;;;;25.00;61.80;;;;;;6312476;27;19981;-39
2022/08/19 17:06:42;;;;;;;;;;;25.00;61.80;;;;;;6310743;27;20942;-38
2022/08/19 17:09:43;;;;;;;;;;;25.00;61.80;;;;;;6311977;27;20879;-40
2022/08/19 17:12:47;;;;;;;;;;;25.10;61.90;;;;;;6312197;27;19992;-39
2022/08/19 17:15:49;;;;;;;;;;;25.00;61.80;;;;;;6309503;27;19966;-39
2022/08/19 17:18:51;;;;;;;;;;;24.90;61.80;;;;;;6314022;27;20292;-39
2022/08/19 17:21:53;;;;;;;;;;;25.10;61.90;;;;;;6314546;27;19970;-38
2022/08/19 17:24:54;;;;;;;;;;;24.40;61.50;;;;;;6318359;27;20983;-39
2022/08/19 17:28:06;;;;;;;;;;;25.00;61.80;;;;;;6315204;27;20762;-40
2022/08/19 17:31:08;;;;;;;;;;;24.80;61.70;;;;;;6311620;27;19923;-39
2022/08/19 17:34:09;;;;;;;;;;;24.80;61.80;;;;;;6312596;27;20841;-40
2022/08/19 17:37:11;;;;;;;;;;;25.20;62.00;;;;;;6310972;27;19931;-39
2022/08/19 17:40:17;;;;;;;;;;;24.90;61.80;;;;;;6313746;27;19929;-39
2022/08/19 17:43:25;;;;;;;;;;;24.90;61.70;;;;;;6312613;27;19931;-39
2022/08/19 17:46:39;;;;;;;;;;;25.00;61.80;;;;;;6309285;27;19927;-39
2022/08/19 17:49:40;;;;;;;;;;;25.00;61.80;;;;;;6314261;27;19976;-38
2022/08/19 17:52:43;;;;;;;;;;;24.90;61.70;;;;;;6310869;27;21668;-39
2022/08/19 17:55:44;;;;;;;;;;;25.00;61.80;;;;;;6292621;27;19927;-39
2022/08/19 17:58:49;;;;;;;;;;;25.00;61.80;;;;;;6307497;27;20824;-38
2022/08/19 18:02:03;;;;;;;;;;;25.00;61.80;;;;;;6309493;27;19989;-39
2022/08/19 18:05:05;;;;;;;;;;;25.10;61.80;;;;;;6312401;27;19923;-39
2022/08/19 18:08:09;;;;;;;;;;;25.20;61.90;;;;;;6311631;27;19927;-40
2022/08/19 18:11:11;;;;;;;;;;;25.10;61.70;;;;;;6314868;27;19923;-39
2022/08/19 18:14:14;;;;;;;;;;;24.90;61.60;;;;;;6312444;27;20119;-39
2022/08/19 18:17:17;;;;;;;;;;;25.00;61.60;;;;;;6317127;27;19987;-39
2022/08/19 18:20:19;;;;;;;;;;;25.10;61.70;;;;;;6320287;27;20339;-38
2022/08/19 18:23:20;;;;;;;;;;;25.00;61.60;;;;;;6320621;27;19925;-39